createdAt,value
2017-09-12T00:01:34.849Z,84.60
2017-09-12T00:04:39.865Z,84.30
2017-09-12T00:07:46.432Z,84.00
2017-09-12T00:10:51.796Z,83.50
2017-09-12T00:13:56.755Z,82.90
2017-09-12T00:17:01.785Z,82.60
2017-09-12T00:20:06.637Z,82.60
2017-09-12T00:23:11.657Z,82.30
2017-09-12T00:26:17.079Z,82.50
2017-09-12T00:29:22.095Z,82.40
2017-09-12T00:32:27.469Z,82.40
2017-09-12T00:35:32.694Z,82.80
2017-09-12T00:38:38.068Z,83.00
2017-09-12T00:41:44.607Z,83.00
2017-09-12T00:44:50.132Z,83.50
2017-09-12T00:47:54.972Z,83.90
2017-09-12T00:50:59.764Z,83.90
2017-09-12T00:54:05.172Z,83.90
2017-09-12T00:57:10.716Z,83.70
2017-09-12T01:00:15.644Z,83.30
2017-09-12T01:03:20.820Z,82.80
2017-09-12T01:06:25.965Z,82.30
2017-09-12T01:09:31.069Z,81.60
2017-09-12T01:12:36.507Z,81.10
2017-09-12T01:15:42.133Z,80.90
2017-09-12T01:18:47.780Z,80.50
2017-09-12T01:21:53.196Z,80.20
2017-09-12T01:24:58.825Z,80.00
2017-09-12T01:28:04.383Z,80.20
2017-09-12T01:31:09.348Z,80.40
2017-09-12T01:34:15.657Z,80.10
2017-09-12T01:37:21.161Z,80.10
2017-09-12T01:40:26.915Z,80.00
2017-09-12T01:43:32.495Z,79.90
2017-09-12T01:46:37.546Z,79.90
2017-09-12T01:49:43.184Z,80.20
2017-09-12T01:52:48.945Z,80.20
2017-09-12T01:55:54.556Z,80.80
2017-09-12T01:59:00.088Z,80.40
2017-09-12T02:02:05.669Z,80.80
2017-09-12T02:05:11.876Z,81.10
2017-09-12T02:08:17.436Z,81.20
2017-09-12T02:11:22.705Z,81.40
2017-09-12T02:14:28.249Z,81.50
2017-09-12T02:17:33.904Z,82.30
2017-09-12T02:20:39.342Z,82.30
2017-09-12T02:23:45.334Z,83.00
2017-09-12T02:26:50.506Z,82.40
2017-09-12T02:29:55.901Z,82.50
2017-09-12T02:33:00.965Z,83.00
2017-09-12T02:36:06.195Z,83.30
2017-09-12T02:39:11.207Z,83.20
2017-09-12T02:42:17.020Z,84.10
2017-09-12T02:45:22.137Z,84.10
2017-09-12T02:48:28.290Z,85.10
2017-09-12T02:51:33.514Z,84.40
2017-09-12T02:54:39.517Z,84.50
2017-09-12T02:57:44.655Z,84.50
2017-09-12T03:00:50.327Z,84.50
2017-09-12T03:03:55.895Z,84.60
2017-09-12T03:07:01.840Z,83.50
2017-09-12T03:10:06.499Z,83.50
2017-09-12T03:13:11.686Z,83.60
2017-09-12T03:16:16.809Z,83.80
2017-09-12T03:19:22.295Z,83.90
2017-09-12T03:22:28.444Z,84.10
2017-09-12T03:25:34.669Z,84.10
2017-09-12T03:28:40.255Z,83.80
2017-09-12T03:31:45.796Z,83.90
2017-09-12T03:34:51.723Z,84.00
2017-09-12T03:37:57.149Z,84.00
2017-09-12T03:41:03.805Z,83.90
2017-09-12T03:44:08.605Z,83.70
2017-09-12T03:47:14.382Z,83.40
2017-09-12T03:50:19.855Z,83.30
2017-09-12T03:53:24.596Z,83.00
2017-09-12T03:56:29.769Z,83.30
2017-09-12T03:59:35.159Z,83.60
2017-09-12T04:02:41.720Z,83.60
2017-09-12T04:05:46.571Z,83.60
2017-09-12T04:08:52.455Z,83.80
2017-09-12T04:11:57.976Z,83.60
2017-09-12T04:15:03.391Z,83.50
2017-09-12T04:18:09.979Z,83.90
2017-09-12T04:21:14.996Z,84.00
2017-09-12T04:24:20.711Z,84.10
2017-09-12T04:27:25.937Z,84.40
2017-09-12T04:30:30.887Z,84.30
2017-09-12T04:33:36.277Z,84.50
2017-09-12T04:36:41.883Z,84.40
2017-09-12T04:39:46.699Z,84.50
2017-09-12T04:42:51.693Z,84.70
2017-09-12T04:45:57.499Z,85.30
2017-09-12T04:49:02.844Z,85.50
2017-09-12T04:52:09.172Z,86.50
2017-09-12T04:55:14.178Z,86.50
2017-09-12T04:58:19.112Z,87.50
2017-09-12T05:01:24.448Z,87.40
2017-09-12T05:04:29.928Z,87.90
2017-09-12T05:07:36.299Z,89.40
2017-09-12T05:10:42.660Z,89.90
2017-09-12T05:13:48.837Z,89.90
2017-09-12T05:16:53.680Z,90.20
2017-09-12T05:19:59.410Z,90.40
2017-09-12T05:23:04.764Z,90.40
2017-09-12T05:26:10.603Z,90.50
2017-09-12T05:29:15.811Z,90.50
2017-09-12T05:32:20.823Z,90.70
2017-09-12T05:35:26.535Z,90.70
2017-09-12T05:38:31.991Z,90.60
2017-09-12T05:41:38.253Z,90.70
2017-09-12T05:44:43.735Z,90.80
2017-09-12T05:47:49.352Z,90.80
2017-09-12T05:50:55.752Z,90.70
2017-09-12T05:54:00.580Z,90.50
2017-09-12T05:57:06.156Z,90.40
2017-09-12T06:00:12.432Z,90.30
2017-09-12T06:03:17.420Z,90.00
2017-09-12T06:06:22.377Z,90.10
2017-09-12T06:09:27.182Z,90.10
2017-09-12T06:12:32.804Z,90.00
2017-09-12T06:15:38.010Z,90.10
2017-09-12T06:18:43.565Z,90.20
2017-09-12T06:21:48.476Z,90.30
2017-09-12T06:24:53.824Z,90.50
2017-09-12T06:27:59.407Z,90.40
2017-09-12T06:31:04.381Z,90.50
2017-09-12T06:34:09.879Z,90.60
2017-09-12T06:37:15.231Z,90.70
2017-09-12T06:40:20.460Z,91.20
2017-09-12T06:43:25.959Z,90.70
2017-09-12T06:46:31.340Z,90.70
2017-09-12T06:49:37.117Z,90.90
2017-09-12T06:52:42.672Z,90.70
2017-09-12T06:55:47.788Z,90.40
2017-09-12T06:58:53.349Z,90.30
2017-09-12T07:01:59.312Z,90.00
2017-09-12T07:05:05.599Z,89.80
2017-09-12T07:08:10.723Z,89.90
2017-09-12T07:11:15.784Z,88.80
2017-09-12T07:14:21.585Z,88.00
2017-09-12T07:17:26.590Z,87.80
2017-09-12T07:20:31.327Z,87.30
2017-09-12T07:23:36.881Z,86.20
2017-09-12T07:26:42.494Z,86.70
2017-09-12T07:29:47.811Z,86.00
2017-09-12T07:32:53.310Z,85.40
2017-09-12T07:35:59.005Z,82.30
2017-09-12T07:39:03.762Z,80.80
2017-09-12T07:42:09.064Z,77.00
2017-09-12T07:45:14.218Z,74.30
2017-09-12T07:48:19.732Z,73.90
2017-09-12T07:51:27.741Z,74.20
2017-09-12T07:54:32.936Z,74.60
2017-09-12T07:57:38.351Z,75.10
2017-09-12T08:00:44.225Z,75.20
2017-09-12T08:03:49.945Z,73.30
2017-09-12T08:06:55.568Z,75.00
2017-09-12T08:10:07.549Z,71.90
2017-09-12T08:13:12.564Z,71.90
2017-09-12T08:16:18.100Z,70.20
2017-09-12T08:19:23.035Z,71.30
2017-09-12T08:22:28.547Z,71.90
2017-09-12T08:25:33.427Z,71.70
2017-09-12T08:28:39.668Z,69.70
2017-09-12T08:31:44.728Z,69.60
2017-09-12T08:34:49.535Z,68.00
2017-09-12T08:37:55.506Z,67.90
2017-09-12T08:41:01.788Z,67.90
2017-09-12T08:44:08.549Z,68.10
2017-09-12T08:47:14.220Z,68.10
2017-09-12T08:50:19.165Z,67.60
2017-09-12T08:53:25.823Z,68.20
2017-09-12T08:56:31.376Z,68.70
2017-09-12T08:59:37.451Z,70.60
2017-09-12T09:02:43.016Z,70.40
2017-09-12T09:05:48.152Z,69.40
2017-09-12T09:08:53.981Z,63.60
2017-09-12T09:11:59.460Z,63.60
2017-09-12T09:15:05.047Z,63.50
2017-09-12T09:18:10.353Z,63.50
2017-09-12T09:21:15.984Z,62.10
2017-09-12T09:24:21.271Z,61.40
2017-09-12T09:27:27.128Z,62.20
2017-09-12T09:30:33.772Z,62.10
2017-09-12T09:33:38.848Z,62.60
2017-09-12T09:36:44.432Z,64.30
2017-09-12T09:39:49.265Z,64.60
2017-09-12T09:42:54.494Z,64.60
2017-09-12T09:45:59.868Z,64.20
2017-09-12T09:49:04.740Z,62.80
2017-09-12T09:52:09.953Z,61.30
2017-09-12T09:55:14.959Z,63.10
2017-09-12T09:58:20.700Z,64.90
2017-09-12T10:01:26.252Z,67.40
2017-09-12T10:04:31.036Z,69.50
2017-09-12T10:07:37.180Z,64.70
2017-09-12T10:10:42.852Z,64.70
2017-09-12T10:13:49.352Z,63.50
2017-09-12T10:16:55.103Z,63.50
2017-09-12T10:20:00.559Z,63.80
2017-09-12T10:23:06.496Z,64.00
2017-09-12T10:26:12.639Z,64.60
2017-09-12T10:29:18.228Z,64.60
2017-09-12T10:32:23.059Z,64.70
2017-09-12T10:35:28.252Z,63.90
2017-09-12T10:38:33.522Z,62.20
2017-09-12T10:41:38.611Z,60.00
2017-09-12T10:44:44.290Z,59.40
2017-09-12T10:47:49.654Z,59.60
2017-09-12T10:50:54.773Z,58.10
2017-09-12T10:54:00.165Z,58.80
2017-09-12T10:57:05.315Z,59.40
2017-09-12T11:00:10.502Z,59.00
2017-09-12T11:03:15.484Z,60.20
2017-09-12T11:06:21.706Z,60.20
2017-09-12T11:09:27.116Z,60.30
2017-09-12T11:12:33.315Z,64.30
2017-09-12T11:15:39.336Z,65.10
2017-09-12T11:18:45.093Z,64.90
2017-09-12T11:21:50.625Z,64.80
2017-09-12T11:24:55.873Z,65.20
2017-09-12T11:28:01.508Z,64.60
2017-09-12T11:31:06.430Z,64.40
2017-09-12T11:34:12.192Z,63.80
2017-09-12T11:37:17.348Z,62.20
2017-09-12T11:40:22.372Z,61.30
2017-09-12T11:43:27.415Z,60.20
2017-09-12T11:46:40.389Z,60.80
2017-09-12T11:49:45.425Z,64.40
2017-09-12T11:52:50.797Z,63.40
2017-09-12T11:55:55.480Z,60.00
2017-09-12T11:59:01.163Z,59.70
2017-09-12T12:02:06.573Z,60.40
2017-09-12T12:05:12.953Z,57.10
2017-09-12T12:08:17.796Z,57.70
2017-09-12T12:11:22.996Z,58.40
2017-09-12T12:14:27.939Z,59.10
2017-09-12T12:17:33.309Z,60.20
2017-09-12T12:20:39.380Z,61.40
2017-09-12T12:23:44.298Z,61.10
2017-09-12T12:26:49.179Z,58.60
2017-09-12T12:29:54.468Z,59.70
2017-09-12T12:32:59.986Z,61.20
2017-09-12T12:36:05.064Z,60.10
2017-09-12T12:39:10.377Z,60.00
2017-09-12T12:42:15.315Z,58.70
2017-09-12T12:45:20.164Z,59.70
2017-09-12T12:48:25.128Z,60.00
2017-09-12T12:51:30.296Z,59.30
2017-09-12T12:54:35.529Z,57.20
2017-09-12T12:57:41.044Z,57.60
2017-09-12T13:00:46.171Z,58.80
2017-09-12T13:03:51.439Z,57.50
2017-09-12T13:06:56.504Z,58.50
2017-09-12T13:10:02.270Z,65.70
2017-09-12T13:13:07.343Z,65.60
2017-09-12T13:16:12.657Z,70.00
2017-09-12T13:19:17.507Z,72.70
2017-09-12T13:22:23.063Z,73.60
2017-09-12T13:25:29.368Z,75.00
2017-09-12T13:28:34.316Z,73.80
2017-09-12T13:31:39.348Z,71.50
2017-09-12T13:34:44.354Z,70.80
2017-09-12T13:37:49.541Z,68.70
2017-09-12T13:40:55.498Z,67.20
2017-09-12T13:44:00.356Z,66.60
2017-09-12T13:47:06.281Z,62.80
2017-09-12T13:50:11.401Z,62.80
2017-09-12T13:53:17.031Z,61.60
2017-09-12T13:56:21.893Z,61.60
2017-09-12T13:59:27.433Z,60.80
2017-09-12T14:02:32.940Z,62.00
2017-09-12T14:05:38.260Z,60.90
2017-09-12T14:08:43.409Z,62.00
2017-09-12T14:11:49.170Z,61.70
2017-09-12T14:14:54.852Z,61.60
2017-09-12T14:17:59.839Z,61.60
2017-09-12T14:21:05.917Z,61.30
2017-09-12T14:24:11.596Z,61.20
2017-09-12T14:27:17.344Z,62.10
2017-09-12T14:30:24.495Z,61.50
2017-09-12T14:33:29.975Z,60.60
2017-09-12T14:36:35.450Z,59.30
2017-09-12T14:39:41.403Z,60.00
2017-09-12T14:42:47.072Z,60.00
2017-09-12T14:45:52.254Z,60.10
2017-09-12T14:48:57.706Z,60.90
2017-09-12T14:52:02.808Z,60.30
2017-09-12T14:55:08.437Z,59.60
2017-09-12T14:58:13.384Z,59.40
2017-09-12T15:01:20.519Z,58.60
2017-09-12T15:04:25.435Z,59.70
2017-09-12T15:07:30.264Z,59.40
2017-09-12T15:10:35.932Z,60.90
2017-09-12T15:13:41.641Z,61.20
2017-09-12T15:16:46.975Z,61.20
2017-09-12T15:19:53.492Z,62.90
2017-09-12T15:22:58.939Z,61.90
2017-09-12T15:26:04.130Z,62.10
2017-09-12T15:29:09.360Z,62.00
2017-09-12T15:32:15.683Z,61.40
2017-09-12T15:35:21.601Z,59.60
2017-09-12T15:38:27.720Z,58.80
2017-09-12T15:41:33.061Z,58.80
2017-09-12T15:44:38.832Z,59.20
2017-09-12T15:47:43.849Z,59.80
2017-09-12T15:50:48.645Z,60.50
2017-09-12T15:53:54.261Z,60.20
2017-09-12T15:56:59.123Z,60.50
2017-09-12T16:00:04.496Z,60.30
2017-09-12T16:03:10.066Z,60.90
2017-09-12T16:06:15.675Z,61.70
2017-09-12T16:09:21.903Z,62.50
2017-09-12T16:12:27.003Z,62.40
2017-09-12T16:15:32.050Z,61.90
2017-09-12T16:18:37.314Z,62.80
2017-09-12T16:21:42.447Z,63.20
2017-09-12T16:24:48.196Z,62.30
2017-09-12T16:27:53.471Z,62.50
2017-09-12T16:31:00.755Z,62.40
2017-09-12T16:34:06.478Z,62.40
2017-09-12T16:37:11.570Z,63.60
2017-09-12T16:40:17.889Z,64.60
2017-09-12T16:43:23.160Z,64.60
2017-09-12T16:49:01.914Z,65.40
2017-09-12T16:52:07.864Z,65.70
2017-09-12T16:55:13.236Z,65.60
2017-09-12T16:58:20.551Z,66.00
2017-09-12T17:01:25.741Z,66.00
2017-09-12T17:04:31.898Z,66.10
2017-09-12T17:07:36.763Z,66.20
2017-09-12T17:10:41.692Z,66.40
2017-09-12T17:13:46.808Z,65.90
2017-09-12T17:16:51.661Z,65.90
2017-09-12T17:19:57.121Z,66.30
2017-09-12T17:23:02.210Z,66.20
2017-09-12T17:26:07.392Z,66.60
2017-09-12T17:29:13.705Z,67.40
2017-09-12T17:32:19.838Z,67.70
2017-09-12T17:35:25.300Z,67.60
2017-09-12T17:38:31.121Z,68.00
2017-09-12T17:41:36.761Z,68.60
2017-09-12T17:44:42.164Z,69.20
2017-09-12T17:47:47.212Z,69.80
2017-09-12T17:50:52.528Z,70.50
2017-09-12T17:53:57.757Z,69.70
2017-09-12T17:57:03.133Z,69.40
2017-09-12T18:00:08.606Z,69.20
2017-09-12T18:03:15.763Z,69.10
2017-09-12T18:06:21.322Z,69.70
2017-09-12T18:09:26.388Z,69.70
2017-09-12T18:12:31.624Z,69.70
2017-09-12T18:15:36.646Z,69.80
2017-09-12T18:18:42.076Z,69.70
2017-09-12T18:21:47.296Z,69.60
2017-09-12T18:24:52.340Z,69.50
2017-09-12T18:27:58.961Z,70.10
2017-09-12T18:31:03.667Z,70.40
2017-09-12T18:34:09.084Z,71.60
2017-09-12T18:37:14.060Z,71.20
2017-09-12T18:40:20.626Z,72.20
2017-09-12T18:43:26.196Z,72.10
2017-09-12T18:46:31.369Z,72.40
2017-09-12T18:49:36.342Z,72.80
2017-09-12T18:52:42.384Z,73.80
2017-09-12T18:55:47.805Z,73.80
2017-09-12T18:58:53.030Z,73.90
2017-09-12T19:01:58.313Z,74.60
2017-09-12T19:05:03.415Z,75.20
2017-09-12T19:08:08.352Z,75.70
2017-09-12T19:11:13.184Z,76.30
2017-09-12T19:14:18.056Z,76.60
2017-09-12T19:17:22.950Z,77.10
2017-09-12T19:20:27.925Z,77.30
2017-09-12T19:23:33.624Z,77.80
2017-09-12T19:26:38.716Z,77.70
2017-09-12T19:29:44.763Z,78.00
2017-09-12T19:32:52.723Z,78.10
2017-09-12T19:35:58.364Z,78.20
2017-09-12T19:39:03.233Z,78.30
2017-09-12T19:42:08.691Z,78.30
2017-09-12T19:45:14.416Z,78.50
2017-09-12T19:48:23.497Z,78.50
2017-09-12T19:51:28.623Z,78.50
2017-09-12T19:54:34.133Z,78.30
2017-09-12T19:57:39.495Z,78.40
2017-09-12T20:00:46.540Z,79.00
2017-09-12T20:03:51.395Z,79.00
2017-09-12T20:06:56.557Z,79.00
2017-09-12T20:10:02.093Z,79.10
2017-09-12T20:13:07.420Z,79.30
2017-09-12T20:16:12.659Z,79.90
2017-09-12T20:19:17.871Z,80.20
2017-09-12T20:22:22.885Z,80.80
2017-09-12T20:25:27.696Z,81.10
2017-09-12T20:28:33.512Z,81.70
2017-09-12T20:31:39.044Z,82.10
2017-09-12T20:34:45.031Z,82.40
2017-09-12T20:37:49.718Z,82.40
2017-09-12T20:40:55.347Z,82.70
2017-09-12T20:44:00.905Z,82.60
2017-09-12T20:47:05.592Z,82.60
2017-09-12T20:50:10.581Z,82.50
2017-09-12T20:53:16.019Z,82.50
2017-09-12T20:56:21.137Z,82.80
2017-09-12T20:59:27.239Z,83.50
2017-09-12T21:02:32.815Z,83.50
2017-09-12T21:05:37.643Z,84.00
2017-09-12T21:08:42.655Z,84.80
2017-09-12T21:11:48.609Z,86.80
2017-09-12T21:14:53.592Z,86.80
2017-09-12T21:17:58.823Z,87.20
2017-09-12T21:21:03.904Z,87.70
2017-09-12T21:24:09.487Z,88.20
2017-09-12T21:27:15.228Z,88.50
2017-09-12T21:30:21.047Z,89.80
2017-09-12T21:33:26.223Z,89.70
2017-09-12T21:36:31.767Z,90.10
2017-09-12T21:39:37.919Z,90.20
2017-09-12T21:42:42.988Z,90.20
2017-09-12T21:45:47.991Z,90.30
2017-09-12T21:48:53.984Z,90.20
2017-09-12T21:51:59.107Z,90.20
2017-09-12T21:55:05.140Z,90.10
2017-09-12T21:58:10.297Z,90.10
2017-09-12T22:01:15.440Z,90.20
2017-09-12T22:04:20.730Z,90.30
2017-09-12T22:07:25.553Z,90.20
2017-09-12T22:10:30.971Z,90.20
2017-09-12T22:13:36.268Z,90.30
2017-09-12T22:16:42.048Z,90.50
2017-09-12T22:19:47.527Z,90.50
2017-09-12T22:22:52.269Z,90.70
2017-09-12T22:25:57.396Z,90.80
2017-09-12T22:29:03.159Z,90.80
2017-09-12T22:32:08.065Z,90.80
2017-09-12T22:35:13.701Z,90.60
2017-09-12T22:38:18.940Z,90.40
2017-09-12T22:41:25.191Z,90.40
2017-09-12T22:44:30.755Z,90.70
2017-09-12T22:47:35.664Z,90.40
2017-09-12T22:50:41.245Z,90.60
2017-09-12T22:53:46.535Z,90.80
2017-09-12T22:56:51.272Z,90.90
2017-09-12T22:59:56.911Z,90.90
2017-09-12T23:03:01.920Z,90.90
2017-09-12T23:06:06.848Z,91.00
2017-09-12T23:09:11.991Z,91.00
2017-09-12T23:12:17.041Z,91.10
2017-09-12T23:15:22.212Z,91.10
2017-09-12T23:18:27.708Z,91.10
2017-09-12T23:21:32.855Z,91.00
2017-09-12T23:24:37.700Z,90.90
2017-09-12T23:27:43.048Z,90.90
2017-09-12T23:30:48.568Z,90.70
2017-09-12T23:33:54.045Z,90.60
2017-09-12T23:36:59.117Z,90.50
2017-09-12T23:40:04.541Z,90.40
2017-09-12T23:43:09.762Z,90.50
2017-09-12T23:46:15.126Z,90.50
2017-09-12T23:49:20.792Z,90.50
2017-09-12T23:52:26.556Z,90.50
2017-09-12T23:55:32.443Z,90.50
2017-09-12T23:58:37.559Z,90.50
